Time;durP1;ratioP1;P1;durP2;ratioP2;P2;SDS_P1;SDS_P2;PMS_P1;PMS_P2;Temp;Humidity;BMP_temperature;BMP_pressure;BME280_temperature;BME280_humidity;BME280_pressure;Samples;Min_cycle;Max_cycle;Signal;HPM_P1;HPM_P2
2023/03/28 04:00:24;;;;;;;0.10;0.10;;;0.70;99.90;;;;;;5835672;23;21708;-67
2023/03/28 04:02:51;;;;;;;18.33;0.63;;;0.70;99.90;;;;;;4892352;29;20309;-67
2023/03/28 04:05:17;;;;;;;0.10;0.10;;;0.70;99.90;;;;;;4897189;29;20852;-66
2023/03/28 04:07:44;;;;;;;0.10;0.10;;;0.60;99.90;;;;;;4896892;29;20607;-68
2023/03/28 04:10:11;;;;;;;0.10;0.10;;;0.60;99.90;;;;;;4895163;29;20267;-68
2023/03/28 04:12:38;;;;;;;0.47;0.47;;;0.60;99.90;;;;;;4879186;29;20712;-68
2023/03/28 04:15:06;;;;;;;0.40;0.40;;;0.60;99.90;;;;;;4878884;29;20204;-68
2023/03/28 04:17:35;;;;;;;0.20;0.20;;;0.60;99.90;;;;;;4875396;29;20218;-68
2023/03/28 04:20:05;;;;;;;0.10;0.10;;;0.60;99.90;;;;;;4873734;29;20211;-67
2023/03/28 04:22:34;;;;;;;0.32;0.32;;;0.60;99.90;;;;;;4879360;29;20232;-68
2023/03/28 04:25:01;;;;;;;2.35;0.75;;;0.60;99.90;;;;;;4876506;29;20579;-68
2023/03/28 04:27:30;;;;;;;0.50;0.50;;;0.60;99.90;;;;;;4878251;29;20239;-68
2023/03/28 04:29:56;;;;;;;0.40;0.40;;;0.60;99.90;;;;;;4878130;29;20739;-68
2023/03/28 04:32:23;;;;;;;0.50;0.50;;;0.50;99.90;;;;;;4867689;29;20236;-68
2023/03/28 04:34:51;;;;;;;0.10;0.10;;;0.50;99.90;;;;;;4877823;29;20318;-68
2023/03/28 04:37:18;;;;;;;0.47;0.47;;;0.50;99.90;;;;;;4872963;29;20212;-68
2023/03/28 04:39:46;;;;;;;0.22;0.22;;;0.50;99.90;;;;;;4878680;29;20238;-68
2023/03/28 04:42:14;;;;;;;0.20;0.20;;;0.50;99.90;;;;;;4878190;29;20238;-68
2023/03/28 04:44:41;;;;;;;0.10;0.10;;;0.50;99.90;;;;;;4877837;29;20666;-67
2023/03/28 04:47:10;;;;;;;1.50;0.93;;;0.50;99.90;;;;;;4878563;29;20211;-68
2023/03/28 04:49:37;;;;;;;0.20;0.20;;;0.50;99.90;;;;;;4879918;29;20216;-69
2023/03/28 04:52:05;;;;;;;2.95;2.50;;;0.50;99.90;;;;;;4878738;29;20745;-67
2023/03/28 04:54:32;;;;;;;0.55;0.55;;;0.50;99.90;;;;;;4878960;29;20270;-69
2023/03/28 04:56:59;;;;;;;1.45;1.02;;;0.40;99.90;;;;;;4874282;29;20215;-68
2023/03/28 04:59:25;;;;;;;0.10;0.10;;;0.50;99.90;;;;;;4879753;29;20240;-67
2023/03/28 05:01:52;;;;;;;0.10;0.10;;;0.50;99.90;;;;;;4876169;29;20235;-67
2023/03/28 05:04:20;;;;;;;0.10;0.10;;;0.40;99.90;;;;;;4875400;29;20588;-68
2023/03/28 05:06:48;;;;;;;0.60;0.60;;;0.40;99.90;;;;;;4878629;29;20226;-68
2023/03/28 05:09:17;;;;;;;0.10;0.10;;;0.50;99.90;;;;;;4878646;29;20220;-68
2023/03/28 05:11:44;;;;;;;0.20;0.20;;;0.50;99.90;;;;;;4877897;29;20232;-68
2023/03/28 05:14:11;;;;;;;0.52;0.52;;;0.40;99.90;;;;;;4876997;29;20235;-68
2023/03/28 05:16:38;;;;;;;0.40;0.40;;;0.50;99.90;;;;;;4876996;29;20212;-69
2023/03/28 05:19:05;;;;;;;0.10;0.10;;;0.50;99.90;;;;;;4879151;29;20226;-68
2023/03/28 05:21:32;;;;;;;0.35;0.35;;;0.50;99.90;;;;;;4870993;29;20260;-67
2023/03/28 05:23:58;;;;;;;0.20;0.20;;;0.50;99.90;;;;;;4867020;29;20287;-68
2023/03/28 05:26:26;;;;;;;0.10;0.10;;;0.50;99.90;;;;;;4877883;29;20222;-67
2023/03/28 05:28:55;;;;;;;0.10;0.10;;;0.50;99.90;;;;;;4879299;29;20196;-68
2023/03/28 05:31:24;;;;;;;0.30;0.30;;;0.60;99.90;;;;;;4878962;29;20451;-67
2023/03/28 05:33:51;;;;;;;0.10;0.10;;;0.60;99.90;;;;;;4878901;29;20313;-67
2023/03/28 05:36:19;;;;;;;0.30;0.30;;;0.60;99.90;;;;;;4877809;29;20219;-67
2023/03/28 05:38:46;;;;;;;0.10;0.10;;;0.70;99.90;;;;;;4877183;29;20247;-67
2023/03/28 05:41:12;;;;;;;0.20;0.20;;;0.70;99.90;;;;;;4878217;29;20239;-67
2023/03/28 05:43:40;;;;;;;0.40;0.40;;;0.80;99.90;;;;;;4878640;29;20203;-68
2023/03/28 05:46:07;;;;;;;0.10;0.10;;;0.80;99.90;;;;;;4871455;29;20212;-67
2023/03/28 05:48:35;;;;;;;0.20;0.20;;;0.90;99.90;;;;;;4875458;29;20672;-67
2023/03/28 05:51:02;;;;;;;0.10;0.10;;;0.90;99.90;;;;;;4877421;29;20231;-68
2023/03/28 05:53:29;;;;;;;0.30;0.30;;;1.00;99.90;;;;;;4870670;29;20269;-67
2023/03/28 05:55:55;;;;;;;0.60;0.60;;;1.00;99.90;;;;;;4877829;29;20216;-67
2023/03/28 05:58:22;;;;;;;0.30;0.30;;;1.10;99.90;;;;;;4870688;29;20553;-68
2023/03/28 06:00:51;;;;;;;0.10;0.10;;;1.10;99.90;;;;;;4876420;29;20267;-68
2023/03/28 06:03:17;;;;;;;0.20;0.20;;;1.20;99.90;;;;;;4877516;29;20629;-67
2023/03/28 06:05:44;;;;;;;2.08;0.60;;;1.20;99.90;;;;;;4874692;29;20216;-68
2023/03/28 06:08:11;;;;;;;0.30;0.30;;;1.30;99.90;;;;;;4873989;29;20220;-69
2023/03/28 06:10:38;;;;;;;0.50;0.50;;;1.30;99.90;;;;;;4876513;29;20258;-68
2023/03/28 06:13:04;;;;;;;1.75;1.65;;;1.30;99.90;;;;;;4877727;29;20216;-68
2023/03/28 06:15:32;;;;;;;0.30;0.30;;;1.40;99.90;;;;;;4872039;29;20232;-69
2023/03/28 06:18:00;;;;;;;0.10;0.10;;;1.40;99.90;;;;;;4876846;29;20215;-68
2023/03/28 06:20:27;;;;;;;0.40;0.40;;;1.40;99.90;;;;;;4875462;29;20240;-68
2023/03/28 06:22:54;;;;;;;0.20;0.20;;;1.30;99.90;;;;;;4877126;29;20585;-68
2023/03/28 06:25:20;;;;;;;0.25;0.25;;;1.30;99.90;;;;;;4873985;29;20273;-68
2023/03/28 06:27:47;;;;;;;0.25;0.25;;;1.30;99.90;;;;;;4876270;29;20219;-68
2023/03/28 06:30:15;;;;;;;0.75;0.30;;;1.30;99.90;;;;;;4877090;29;20208;-68
2023/03/28 06:32:41;;;;;;;0.55;0.55;;;1.40;99.90;;;;;;4874857;29;20315;-68
2023/03/28 06:35:10;;;;;;;0.10;0.10;;;1.40;99.90;;;;;;4876475;29;20326;-68
2023/03/28 06:37:37;;;;;;;0.10;0.10;;;1.40;99.90;;;;;;4876215;29;20216;-68
2023/03/28 06:40:04;;;;;;;0.20;0.20;;;1.50;99.90;;;;;;4876727;29;20207;-68
2023/03/28 06:42:31;;;;;;;0.50;0.20;;;1.60;99.90;;;;;;4876873;29;20326;-68
2023/03/28 06:44:57;;;;;;;0.20;0.20;;;1.60;99.90;;;;;;4875068;29;20304;-68
2023/03/28 06:47:24;;;;;;;0.40;0.40;;;1.60;99.90;;;;;;4876525;29;20550;-69
2023/03/28 06:49:51;;;;;;;0.50;0.45;;;1.70;99.90;;;;;;4877199;29;20343;-68
2023/03/28 06:52:21;;;;;;;0.10;0.10;;;1.80;99.90;;;;;;4876255;29;20235;-69
2023/03/28 06:54:47;;;;;;;0.20;0.20;;;1.90;99.90;;;;;;4874697;29;20232;-68
2023/03/28 06:57:14;;;;;;;0.30;0.30;;;2.00;99.90;;;;;;4871362;29;20641;-68
2023/03/28 06:59:41;;;;;;;1.15;0.32;;;2.20;99.90;;;;;;4876670;29;20222;-68
2023/03/28 07:02:10;;;;;;;0.10;0.10;;;2.30;99.90;;;;;;4876604;29;20335;-68
2023/03/28 07:04:37;;;;;;;0.20;0.20;;;2.30;99.90;;;;;;4874226;29;20310;-69
2023/03/28 07:07:04;;;;;;;0.40;0.40;;;2.40;99.90;;;;;;4875525;29;20596;-68
2023/03/28 07:09:32;;;;;;;0.32;0.32;;;2.50;99.90;;;;;;4874296;29;20224;-68
2023/03/28 07:11:59;;;;;;;1.42;1.42;;;2.60;99.90;;;;;;4875886;29;20607;-69
2023/03/28 07:14:26;;;;;;;0.30;0.30;;;2.60;99.90;;;;;;4873461;29;20235;-68
2023/03/28 07:16:53;;;;;;;2.07;1.40;;;2.70;99.90;;;;;;4875793;29;20557;-71
2023/03/28 07:19:21;;;;;;;0.35;0.35;;;2.80;99.90;;;;;;4876416;29;20471;-68
2023/03/28 07:21:47;;;;;;;0.30;0.30;;;2.80;99.90;;;;;;4875925;29;20231;-69
2023/03/28 07:24:14;;;;;;;0.60;0.60;;;2.90;99.90;;;;;;4873220;29;20208;-67
2023/03/28 07:26:42;;;;;;;4.38;0.90;;;3.10;99.90;;;;;;4874593;29;20219;-69
2023/03/28 07:29:09;;;;;;;0.60;0.60;;;3.20;99.90;;;;;;4876971;29;20240;-68
2023/03/28 07:31:36;;;;;;;0.40;0.40;;;3.30;99.90;;;;;;4875717;29;20235;-68
2023/03/28 07:34:03;;;;;;;2.05;1.95;;;3.50;99.90;;;;;;4871171;29;20710;-67
2023/03/28 07:36:29;;;;;;;0.40;0.30;;;3.70;99.90;;;;;;4871726;29;20219;-68
2023/03/28 07:38:56;;;;;;;9.57;0.80;;;3.80;99.90;;;;;;4876430;29;20588;-68
2023/03/28 07:41:23;;;;;;;13.48;0.60;;;3.90;99.90;;;;;;4870661;29;20232;-68
2023/03/28 07:43:51;;;;;;;2.15;0.95;;;4.00;99.90;;;;;;4867158;29;20218;-68
2023/03/28 07:46:19;;;;;;;0.20;0.20;;;4.10;99.90;;;;;;4875743;29;20219;-68
2023/03/28 07:48:46;;;;;;;5.72;0.40;;;4.10;99.90;;;;;;4873725;29;20212;-67
2023/03/28 07:51:13;;;;;;;0.20;0.20;;;4.20;99.90;;;;;;4872458;29;20231;-67
2023/03/28 07:53:40;;;;;;;0.45;0.45;;;4.30;99.90;;;;;;4874722;29;20220;-67
2023/03/28 07:56:10;;;;;;;2.58;1.75;;;4.30;99.90;;;;;;4873356;29;20695;-67
2023/03/28 07:58:37;;;;;;;0.50;0.50;;;4.30;99.90;;;;;;4871861;29;20216;-67
2023/03/28 08:01:08;;;;;;;0.20;0.20;;;4.30;99.90;;;;;;4879212;29;20638;-67
2023/03/28 08:03:34;;;;;;;0.20;0.20;;;4.40;99.90;;;;;;4872489;29;20307;-68
2023/03/28 08:06:02;;;;;;;1.35;1.25;;;4.40;99.90;;;;;;4884702;29;20599;-67
2023/03/28 08:08:30;;;;;;;0.35;0.35;;;4.50;99.90;;;;;;4876435;29;20212;-67
2023/03/28 08:10:57;;;;;;;0.57;0.57;;;4.50;99.90;;;;;;4883214;29;20255;-67
2023/03/28 08:13:24;;;;;;;0.20;0.20;;;4.50;99.90;;;;;;4876954;29;20216;-68
2023/03/28 08:15:51;;;;;;;1.75;0.40;;;4.50;99.90;;;;;;4876237;29;20227;-68
2023/03/28 08:18:20;;;;;;;16.50;0.60;;;4.60;99.90;;;;;;4879879;29;20212;-68
2023/03/28 08:20:47;;;;;;;1.08;1.08;;;4.60;99.90;;;;;;4879738;29;20251;-68
2023/03/28 08:23:14;;;;;;;2.08;1.42;;;4.60;99.90;;;;;;4875152;29;20208;-69
2023/03/28 08:25:41;;;;;;;0.30;0.30;;;4.70;99.90;;;;;;4879823;29;20204;-68
2023/03/28 08:28:08;;;;;;;1.65;1.15;;;4.70;99.90;;;;;;4875098;29;20676;-69
2023/03/28 08:30:36;;;;;;;0.35;0.35;;;4.80;99.90;;;;;;4875493;29;20255;-68
2023/03/28 08:33:03;;;;;;;1.23;1.23;;;4.80;99.90;;;;;;4880124;29;20211;-68
2023/03/28 08:35:31;;;;;;;0.20;0.20;;;4.90;99.90;;;;;;4877716;29;20259;-68
2023/03/28 08:37:58;;;;;;;2.00;1.90;;;4.90;99.90;;;;;;4874614;29;20231;-68
2023/03/28 08:40:28;;;;;;;0.52;0.52;;;5.00;99.90;;;;;;4874014;29;20220;-69
2023/03/28 08:43:11;;;;;;;28.70;2.95;;;5.00;99.90;;;;;;4878520;29;20208;-67
2023/03/28 08:45:47;;;;;;;4.20;1.38;;;5.10;99.90;;;;;;4878389;29;20226;-68
2023/03/28 08:48:19;;;;;;;0.30;0.30;;;5.20;99.90;;;;;;4877198;29;20642;-68
2023/03/28 08:50:52;;;;;;;1.08;0.50;;;5.30;99.90;;;;;;4879154;29;20311;-68
2023/03/28 08:53:26;;;;;;;1.75;1.23;;;5.40;99.90;;;;;;4873196;29;20255;-68
2023/03/28 08:55:54;;;;;;;0.40;0.40;;;5.40;99.90;;;;;;4879636;29;20608;-68
2023/03/28 08:58:22;;;;;;;2.25;0.63;;;5.50;99.90;;;;;;4878653;29;20207;-68
2023/03/28 09:00:50;;;;;;;0.57;0.57;;;5.60;99.90;;;;;;4878155;29;20319;-68
2023/03/28 09:03:20;;;;;;;0.75;0.75;;;5.60;99.90;;;;;;4872167;29;20572;-68
2023/03/28 09:05:51;;;;;;;0.45;0.45;;;5.70;99.90;;;;;;4878071;29;20370;-68
2023/03/28 09:08:51;;;;;;;5.20;1.15;;;5.80;99.90;;;;;;4872758;29;20222;-68
2023/03/28 09:11:32;;;;;;;0.30;0.30;;;6.00;99.90;;;;;;4851032;29;20277;-68
2023/03/28 09:14:13;;;;;;;0.30;0.30;;;6.00;99.90;;;;;;4865693;29;20670;-68
2023/03/28 09:16:53;;;;;;;0.22;0.22;;;6.00;99.90;;;;;;4869462;29;20209;-68
2023/03/28 09:19:50;;;;;;;0.22;0.22;;;6.00;99.90;;;;;;4875017;29;20208;-68
2023/03/28 09:22:29;;;;;;;0.52;0.52;;;6.10;99.90;;;;;;4875950;29;20243;-68
2023/03/28 09:25:05;;;;;;;4.10;0.75;;;6.30;99.90;;;;;;4869288;29;20205;-69
2023/03/28 09:27:34;;;;;;;3.25;0.52;;;6.60;99.90;;;;;;4878122;29;20592;-69
2023/03/28 09:30:16;;;;;;;0.35;0.35;;;6.60;99.90;;;;;;4875088;29;20215;-68
2023/03/28 09:32:43;;;;;;;0.52;0.50;;;6.70;99.90;;;;;;4876158;29;20215;-69
2023/03/28 09:35:15;;;;;;;1.27;0.93;;;6.80;99.90;;;;;;4872789;29;20231;-68
2023/03/28 09:37:46;;;;;;;0.65;0.45;;;7.00;99.90;;;;;;4873771;29;20303;-68
2023/03/28 09:40:19;;;;;;;2.70;1.13;;;7.00;99.90;;;;;;4870688;29;20219;-68
2023/03/28 09:42:55;;;;;;;0.50;0.50;;;7.10;99.90;;;;;;4868455;29;20661;-68
2023/03/28 09:45:31;;;;;;;0.25;0.25;;;7.30;99.90;;;;;;4877630;29;20223;-68
2023/03/28 09:47:58;;;;;;;5.13;0.70;;;7.40;99.90;;;;;;4877245;29;20547;-68
2023/03/28 09:50:25;;;;;;;0.32;0.32;;;7.40;99.90;;;;;;4879538;29;20223;-70
2023/03/28 09:52:55;;;;;;;0.52;0.52;;;7.30;99.90;;;;;;4878206;29;20299;-68
2023/03/28 09:55:24;;;;;;;0.38;0.38;;;7.20;99.90;;;;;;4878839;29;20697;-68
2023/03/28 09:58:02;;;;;;;0.40;0.40;;;7.20;99.90;;;;;;4888517;29;20208;-69
2023/03/28 10:00:33;;;;;;;1.75;0.70;;;7.20;99.90;;;;;;4886115;29;20708;-70
2023/03/28 10:03:00;;;;;;;2.72;0.70;;;7.20;99.90;;;;;;4884492;29;20204;-68
2023/03/28 10:05:32;;;;;;;0.80;0.80;;;7.20;99.90;;;;;;4886665;29;20623;-69
2023/03/28 10:08:04;;;;;;;1.75;1.05;;;7.20;99.90;;;;;;4871062;29;20204;-69
2023/03/28 10:10:31;;;;;;;0.80;0.77;;;7.20;99.90;;;;;;4877261;29;20212;-68
2023/03/28 10:13:02;;;;;;;1.88;0.70;;;7.20;99.90;;;;;;4869225;29;20280;-69
2023/03/28 10:15:50;;;;;;;0.20;0.20;;;7.20;99.90;;;;;;4872801;29;20657;-68
2023/03/28 10:18:19;;;;;;;0.35;0.35;;;7.10;99.90;;;;;;4875382;29;20650;-69
2023/03/28 10:20:48;;;;;;;2.95;0.82;;;7.00;99.90;;;;;;4874141;29;20255;-69
2023/03/28 10:23:17;;;;;;;2.65;1.80;;;7.00;99.90;;;;;;4876369;29;20782;-68
2023/03/28 10:25:49;;;;;;;1.98;0.98;;;7.00;99.90;;;;;;4875023;29;20215;-68
2023/03/28 10:28:20;;;;;;;0.75;0.75;;;7.00;99.90;;;;;;4876631;29;20208;-69
2023/03/28 10:30:53;;;;;;;6.50;2.53;;;6.90;99.90;;;;;;4873549;29;20276;-68
2023/03/28 10:33:24;;;;;;;1.52;1.42;;;6.90;99.90;;;;;;4867881;29;20204;-70
2023/03/28 10:35:57;;;;;;;8.02;1.85;;;7.00;99.90;;;;;;4876391;29;20228;-70
2023/03/28 10:38:30;;;;;;;0.30;0.30;;;7.00;99.90;;;;;;4877173;29;20236;-69
2023/03/28 10:41:01;;;;;;;0.45;0.45;;;7.10;99.90;;;;;;4875976;29;20713;-68
2023/03/28 10:43:39;;;;;;;8.15;0.65;;;7.00;99.90;;;;;;4872602;29;20239;-68
2023/03/28 10:46:12;;;;;;;0.30;0.30;;;7.10;99.90;;;;;;4875802;29;20272;-69
2023/03/28 10:48:41;;;;;;;0.30;0.30;;;7.10;99.90;;;;;;4876801;29;20216;-69
2023/03/28 10:51:16;;;;;;;0.28;0.28;;;7.20;99.90;;;;;;4876443;29;20709;-69
2023/03/28 10:54:02;;;;;;;0.40;0.40;;;7.30;99.90;;;;;;4874758;29;20210;-67
2023/03/28 10:56:33;;;;;;;0.20;0.20;;;7.30;99.90;;;;;;4872303;29;20247;-68
2023/03/28 10:59:15;;;;;;;1.02;0.55;;;7.30;99.90;;;;;;4875745;29;20211;-69
2023/03/28 11:01:56;;;;;;;0.30;0.30;;;7.50;99.90;;;;;;4876413;29;20251;-68
2023/03/28 11:04:33;;;;;;;1.75;1.25;;;7.60;99.90;;;;;;4873895;29;20207;-70
2023/03/28 11:07:05;;;;;;;1.35;0.30;;;7.70;99.90;;;;;;4868527;29;20204;-67
2023/03/28 11:09:41;;;;;;;0.35;0.35;;;7.80;99.90;;;;;;4874404;29;20311;-68
2023/03/28 11:12:21;;;;;;;0.40;0.40;;;7.90;99.90;;;;;;4874479;29;20239;-69
2023/03/28 11:15:00;;;;;;;0.35;0.35;;;8.10;99.90;;;;;;4861387;29;20552;-67
2023/03/28 11:17:38;;;;;;;1.58;0.30;;;8.20;99.90;;;;;;4877046;29;20219;-69
2023/03/28 11:20:39;;;;;;;2.38;1.00;;;8.20;99.90;;;;;;4869525;29;20226;-69
2023/03/28 11:23:22;;;;;;;0.30;0.30;;;8.20;99.90;;;;;;4877300;29;20328;-69
2023/03/28 11:25:57;;;;;;;2.08;0.80;;;8.10;99.90;;;;;;4875477;29;20235;-69
2023/03/28 11:28:34;;;;;;;0.40;0.40;;;8.00;99.90;;;;;;4876547;29;20219;-69
2023/03/28 11:31:01;;;;;;;1.13;1.10;;;8.00;99.90;;;;;;4876176;29;20238;-67
2023/03/28 11:33:35;;;;;;;0.40;0.40;;;8.00;99.90;;;;;;4874476;29;20219;-68
2023/03/28 11:36:07;;;;;;;0.30;0.30;;;7.80;99.90;;;;;;4872632;29;20228;-69
2023/03/28 11:38:40;;;;;;;1.00;1.00;;;7.70;99.90;;;;;;4875249;29;20279;-69
2023/03/28 11:41:12;;;;;;;1.52;0.40;;;7.70;99.90;;;;;;4870306;29;20346;-69
2023/03/28 11:43:46;;;;;;;0.30;0.30;;;7.70;99.90;;;;;;4871642;29;20258;-68
2023/03/28 11:46:18;;;;;;;1.25;0.60;;;7.70;99.90;;;;;;4876625;29;20548;-68
2023/03/28 11:48:52;;;;;;;0.30;0.30;;;7.70;99.90;;;;;;4875425;29;20223;-68
2023/03/28 11:51:23;;;;;;;0.30;0.30;;;7.60;99.90;;;;;;4875118;29;20590;-68
2023/03/28 11:53:54;;;;;;;8.48;1.00;;;7.60;99.90;;;;;;4873419;29;20212;-67
2023/03/28 11:56:36;;;;;;;1.35;0.63;;;7.50;99.90;;;;;;4875988;29;20223;-67
2023/03/28 11:59:07;;;;;;;4.38;0.63;;;7.60;99.90;;;;;;4869728;29;20245;-68
2023/03/28 12:01:40;;;;;;;1.17;0.80;;;7.60;99.90;;;;;;4874472;29;20238;-69
2023/03/28 12:04:12;;;;;;;0.30;0.30;;;7.60;99.90;;;;;;4870905;29;20200;-67
2023/03/28 12:06:46;;;;;;;0.45;0.45;;;7.50;99.90;;;;;;4880580;29;20305;-68
2023/03/28 12:09:19;;;;;;;0.20;0.20;;;7.50;99.90;;;;;;4880226;29;20295;-68
2023/03/28 12:11:52;;;;;;;4.03;0.60;;;7.60;99.90;;;;;;4877907;29;20659;-68
2023/03/28 12:14:31;;;;;;;0.73;0.73;;;7.60;99.90;;;;;;4878873;29;20215;-69
2023/03/28 12:17:02;;;;;;;0.70;0.35;;;7.60;99.90;;;;;;4872599;29;20232;-68
2023/03/28 12:19:33;;;;;;;2.15;0.40;;;7.70;99.90;;;;;;4877434;29;20196;-68
2023/03/28 12:22:07;;;;;;;0.32;0.32;;;7.60;99.90;;;;;;4884057;29;20228;-68
2023/03/28 12:24:41;;;;;;;0.63;0.63;;;7.60;99.90;;;;;;4880189;29;20207;-68
2023/03/28 12:27:18;;;;;;;0.47;0.47;;;7.40;99.90;;;;;;4880097;29;20203;-68
2023/03/28 12:29:50;;;;;;;10.23;1.20;;;7.40;99.90;;;;;;4878100;29;20222;-68
2023/03/28 12:32:30;;;;;;;0.93;0.90;;;7.40;99.90;;;;;;4879560;29;20231;-68
2023/03/28 12:35:04;;;;;;;1.08;1.08;;;7.40;99.90;;;;;;4870022;29;20246;-69
2023/03/28 12:37:38;;;;;;;0.35;0.35;;;7.30;99.90;;;;;;4881346;29;20224;-68
2023/03/28 12:40:18;;;;;;;0.30;0.30;;;7.30;99.90;;;;;;4879938;29;20685;-69
2023/03/28 12:42:47;;;;;;;0.40;0.40;;;7.20;99.90;;;;;;4881292;29;20242;-69
2023/03/28 12:45:20;;;;;;;0.50;0.50;;;7.10;99.90;;;;;;4875769;29;20208;-68
2023/03/28 12:47:50;;;;;;;0.63;0.63;;;7.10;99.90;;;;;;4877547;29;20791;-70
2023/03/28 12:50:22;;;;;;;1.27;0.50;;;7.00;99.90;;;;;;4876393;29;20313;-68
2023/03/28 12:52:50;;;;;;;0.50;0.30;;;6.90;99.90;;;;;;4882653;29;20502;-69
2023/03/28 12:55:43;;;;;;;0.70;0.70;;;6.90;99.90;;;;;;4880279;29;20208;-67
2023/03/28 12:58:22;;;;;;;0.32;0.30;;;6.90;99.90;;;;;;4873984;29;20275;-69
2023/03/28 13:01:01;;;;;;;0.20;0.20;;;7.00;99.90;;;;;;4877090;29;20247;-68
2023/03/28 13:03:37;;;;;;;0.30;0.30;;;7.00;99.90;;;;;;4879180;29;20207;-68
2023/03/28 13:06:14;;;;;;;1.98;0.20;;;7.00;99.90;;;;;;4880441;29;20207;-68
2023/03/28 13:08:54;;;;;;;0.50;0.50;;;6.90;99.90;;;;;;4878089;29;20207;-68
2023/03/28 13:11:33;;;;;;;0.22;0.22;;;6.90;99.90;;;;;;4880509;29;20232;-68
2023/03/28 13:14:21;;;;;;;1.60;0.40;;;6.90;99.90;;;;;;4871765;29;20211;-69
2023/03/28 13:16:56;;;;;;;0.50;0.50;;;6.90;99.90;;;;;;4877762;29;20648;-70
2023/03/28 13:19:37;;;;;;;2.92;0.95;;;6.90;99.90;;;;;;4878285;29;20306;-68
2023/03/28 13:22:05;;;;;;;0.75;0.75;;;7.00;99.90;;;;;;4864633;29;20234;-70
2023/03/28 13:24:34;;;;;;;7.88;0.80;;;7.10;99.90;;;;;;4875699;29;20303;-69
2023/03/28 13:27:06;;;;;;;1.90;1.75;;;7.10;99.90;;;;;;4879087;29;20204;-68
2023/03/28 13:29:46;;;;;;;2.03;1.48;;;7.20;99.90;;;;;;4877863;29;20254;-68
2023/03/28 13:32:15;;;;;;;0.20;0.20;;;7.20;99.90;;;;;;4874840;29;20239;-68
2023/03/28 13:34:48;;;;;;;0.90;0.80;;;7.20;99.90;;;;;;4876331;29;20216;-68
2023/03/28 13:37:20;;;;;;;0.90;0.80;;;7.30;99.90;;;;;;4878185;29;20274;-69
2023/03/28 13:39:52;;;;;;;1.10;1.10;;;7.40;99.90;;;;;;4874942;29;21926;-67
2023/03/28 13:42:30;;;;;;;1.35;0.60;;;7.50;99.90;;;;;;4876169;29;20228;-67
2023/03/28 13:45:01;;;;;;;1.67;1.65;;;7.60;99.90;;;;;;4872147;29;20211;-69
2023/03/28 13:47:34;;;;;;;1.15;1.15;;;7.80;99.90;;;;;;4873528;29;20207;-73
2023/03/28 13:50:06;;;;;;;3.00;1.35;;;7.80;99.90;;;;;;4872309;29;20208;-72
2023/03/28 13:52:33;;;;;;;1.73;1.73;;;7.90;99.90;;;;;;4881004;29;20620;-69
2023/03/28 13:55:01;;;;;;;3.45;3.25;;;8.00;99.90;;;;;;4877053;29;20211;-68
2023/03/28 13:57:28;;;;;;;6.40;4.75;;;8.00;99.90;;;;;;4875626;29;20235;-69
2023/03/28 13:59:58;;;;;;;4.40;1.52;;;8.00;99.90;;;;;;4878327;29;20204;-69
2023/03/28 14:02:36;;;;;;;7.85;4.80;;;8.10;99.90;;;;;;4869536;29;20244;-69
2023/03/28 14:05:12;;;;;;;3.30;2.63;;;7.90;99.90;;;;;;4879077;29;20633;-69
2023/03/28 14:07:40;;;;;;;3.90;1.33;;;7.90;99.90;;;;;;4876683;29;20196;-68
2023/03/28 14:10:21;;;;;;;0.90;0.90;;;8.00;99.90;;;;;;4877240;29;20249;-68
2023/03/28 14:12:51;;;;;;;0.45;0.45;;;8.10;99.90;;;;;;4878435;29;20574;-67
2023/03/28 14:15:24;;;;;;;1.08;0.95;;;8.20;99.90;;;;;;4875127;29;20208;-69
2023/03/28 14:17:51;;;;;;;1.52;1.42;;;8.30;99.90;;;;;;4879084;29;20224;-68
2023/03/28 14:20:18;;;;;;;3.30;1.98;;;8.30;99.90;;;;;;4877805;29;20318;-70
2023/03/28 14:22:48;;;;;;;0.40;0.40;;;8.30;99.90;;;;;;4876452;29;20234;-68
2023/03/28 14:25:16;;;;;;;2.63;0.50;;;8.40;99.90;;;;;;4874603;29;20657;-70
2023/03/28 14:27:46;;;;;;;5.97;1.20;;;8.50;99.90;;;;;;4874237;29;20211;-69
2023/03/28 14:30:21;;;;;;;2.30;2.15;;;8.50;99.90;;;;;;4871264;29;20558;-71
2023/03/28 14:32:53;;;;;;;1.90;0.75;;;8.50;99.90;;;;;;4870111;29;20219;-68
2023/03/28 14:35:23;;;;;;;1.33;1.17;;;8.50;99.90;;;;;;4872850;29;20212;-68
2023/03/28 14:37:52;;;;;;;0.40;0.40;;;8.50;99.90;;;;;;4876003;29;20239;-68
2023/03/28 14:40:26;;;;;;;0.75;0.75;;;8.30;99.90;;;;;;4875322;29;20212;-68
2023/03/28 14:42:55;;;;;;;0.50;0.50;;;8.20;99.90;;;;;;4874281;29;20222;-68
2023/03/28 14:45:25;;;;;;;0.30;0.30;;;8.10;99.90;;;;;;4874151;29;20352;-68
2023/03/28 14:47:52;;;;;;;0.50;0.50;;;8.10;99.90;;;;;;4884202;29;20236;-69
2023/03/28 14:50:21;;;;;;;0.85;0.85;;;8.10;99.90;;;;;;4875979;29;20319;-69
2023/03/28 14:52:48;;;;;;;0.75;0.75;;;8.10;99.90;;;;;;4873988;29;20254;-71
2023/03/28 14:55:18;;;;;;;3.90;1.60;;;8.20;99.90;;;;;;4875718;29;20229;-68
2023/03/28 14:57:46;;;;;;;0.65;0.65;;;8.20;99.90;;;;;;4875268;29;20268;-68
2023/03/28 15:00:18;;;;;;;1.52;1.40;;;8.30;99.90;;;;;;4877516;29;20238;-69
2023/03/28 15:02:46;;;;;;;1.33;1.33;;;8.20;99.90;;;;;;4859946;29;20325;-68
2023/03/28 15:05:16;;;;;;;0.80;0.80;;;8.30;99.90;;;;;;4874251;29;20681;-69
2023/03/28 15:07:43;;;;;;;0.85;0.85;;;8.30;99.90;;;;;;4874466;29;20235;-68
2023/03/28 15:10:11;;;;;;;5.30;0.63;;;8.30;99.90;;;;;;4869770;29;20710;-68
2023/03/28 15:12:45;;;;;;;2.55;1.13;;;8.20;99.90;;;;;;4876873;29;20232;-68
2023/03/28 15:15:21;;;;;;;0.88;0.88;;;8.20;99.90;;;;;;4875258;29;20231;-67
2023/03/28 15:17:51;;;;;;;3.25;2.95;;;8.40;99.90;;;;;;4874480;29;20212;-67
2023/03/28 15:20:24;;;;;;;7.10;1.50;;;8.40;99.90;;;;;;4873763;29;20615;-67
2023/03/28 15:22:56;;;;;;;13.05;6.30;;;8.50;99.90;;;;;;4874196;29;20263;-68
2023/03/28 15:25:23;;;;;;;11.45;2.47;;;8.60;99.90;;;;;;4874553;29;20701;-68
2023/03/28 15:27:54;;;;;;;1.38;1.27;;;8.60;99.90;;;;;;4876995;29;20207;-67
2023/03/28 15:30:22;;;;;;;0.30;0.30;;;8.70;99.90;;;;;;4876074;29;20688;-69
2023/03/28 15:32:51;;;;;;;3.58;0.75;;;8.70;99.90;;;;;;4876109;29;20212;-68
2023/03/28 15:35:30;;;;;;;2.95;0.85;;;8.80;99.90;;;;;;4867015;29;20231;-71
2023/03/28 15:38:02;;;;;;;1.40;1.15;;;8.70;99.90;;;;;;4873207;29;20236;-70
2023/03/28 15:40:36;;;;;;;0.63;0.63;;;8.70;99.90;;;;;;4873945;29;20281;-68
2023/03/28 15:43:04;;;;;;;0.55;0.55;;;8.50;99.90;;;;;;4875055;29;20305;-69
2023/03/28 15:45:42;;;;;;;1.10;0.98;;;8.40;99.90;;;;;;4871743;29;20224;-68
2023/03/28 15:48:18;;;;;;;0.30;0.30;;;8.40;99.90;;;;;;4871000;29;20207;-68
2023/03/28 15:50:50;;;;;;;10.73;1.67;;;8.30;99.90;;;;;;4873636;29;20713;-68
2023/03/28 15:53:18;;;;;;;0.82;0.82;;;8.30;99.90;;;;;;4875709;29;20325;-69
2023/03/28 15:55:46;;;;;;;1.50;1.40;;;8.30;99.90;;;;;;4873819;29;20208;-69
2023/03/28 15:58:14;;;;;;;0.50;0.50;;;8.30;99.90;;;;;;4872831;29;20223;-68
2023/03/28 16:00:44;;;;;;;1.95;0.65;;;8.20;99.90;;;;;;4868686;29;20259;-67
2023/03/28 16:03:29;;;;;;;1.52;0.90;;;8.30;99.90;;;;;;4872331;29;20689;-70
2023/03/28 16:06:00;;;;;;;0.88;0.88;;;8.20;99.90;;;;;;4877281;29;20208;-68
2023/03/28 16:08:30;;;;;;;0.30;0.30;;;8.30;99.90;;;;;;4878207;29;20306;-69
2023/03/28 16:10:57;;;;;;;1.40;0.50;;;8.30;99.90;;;;;;4872459;29;20236;-69
2023/03/28 16:13:24;;;;;;;0.52;0.52;;;8.30;99.90;;;;;;4877302;29;20330;-70
2023/03/28 16:15:51;;;;;;;1.23;1.10;;;8.40;99.90;;;;;;4872089;29;20304;-69
2023/03/28 16:18:19;;;;;;;0.50;0.50;;;8.40;99.90;;;;;;4875929;29;20231;-68
2023/03/28 16:20:47;;;;;;;0.63;0.60;;;8.30;99.90;;;;;;4875604;29;20605;-67
2023/03/28 16:23:14;;;;;;;0.95;0.95;;;8.30;99.90;;;;;;4878395;29;20688;-69
2023/03/28 16:25:41;;;;;;;0.40;0.40;;;8.30;99.90;;;;;;4874567;29;20298;-68
2023/03/28 16:28:15;;;;;;;1.00;1.00;;;8.30;99.90;;;;;;4875022;29;20228;-69
2023/03/28 16:30:42;;;;;;;0.70;0.70;;;8.30;99.90;;;;;;4872580;29;20230;-68
2023/03/28 16:33:09;;;;;;;1.70;1.55;;;8.30;99.90;;;;;;4876859;29;20432;-68
2023/03/28 16:35:37;;;;;;;1.55;1.55;;;8.30;99.90;;;;;;4873995;29;20215;-68
2023/03/28 16:38:05;;;;;;;5.80;3.30;;;8.30;99.90;;;;;;4874804;29;20240;-68
2023/03/28 16:40:32;;;;;;;1.20;1.20;;;8.40;99.90;;;;;;4874953;29;20222;-69
2023/03/28 16:43:00;;;;;;;0.50;0.50;;;8.40;99.90;;;;;;4871905;29;20851;-69
2023/03/28 16:45:26;;;;;;;2.38;2.17;;;8.30;99.90;;;;;;4875197;29;20211;-68
2023/03/28 16:47:53;;;;;;;1.83;1.08;;;8.30;99.90;;;;;;4877947;29;20211;-68
2023/03/28 16:50:20;;;;;;;1.33;0.60;;;8.30;99.90;;;;;;4880716;29;20596;-68
2023/03/28 16:52:48;;;;;;;5.95;2.00;;;8.30;99.90;;;;;;4875961;29;20227;-69
2023/03/28 16:55:16;;;;;;;1.85;1.75;;;8.30;99.90;;;;;;4882915;29;20216;-68
2023/03/28 16:57:44;;;;;;;0.50;0.50;;;8.20;99.90;;;;;;4882197;29;20622;-69
2023/03/28 17:00:16;;;;;;;0.60;0.60;;;8.20;99.90;;;;;;4875839;29;20204;-69
2023/03/28 17:02:43;;;;;;;0.30;0.30;;;8.10;99.90;;;;;;4879019;29;20208;-69
2023/03/28 17:05:10;;;;;;;2.20;1.50;;;8.00;99.90;;;;;;4876681;29;20220;-68
2023/03/28 17:07:36;;;;;;;1.00;1.00;;;8.00;99.90;;;;;;4876871;29;20218;-69
2023/03/28 17:10:07;;;;;;;0.60;0.60;;;7.90;99.90;;;;;;4876508;29;20216;-69
2023/03/28 17:12:34;;;;;;;0.45;0.45;;;7.80;99.90;;;;;;4880262;29;20238;-68
2023/03/28 17:15:00;;;;;;;1.08;1.08;;;7.80;99.90;;;;;;4877263;29;20509;-68